PWSweather.com
Personal Weather Stations
Station Observations
KFLWINTE111
Tuscawilla, Winter Springs, FL 32708

TuscawillaWinter Springs, FL 32708

Lat: 28.677427, Lon: -81.241215

Elevation: 30

Station Type: Ambient Weather WS-2902A

Latest ConditionsUpdated 4:27:27 AM EDT Monday, Aug 26, 2019
Currently Today's Max Today's Min Today's Average
Temperature 78.4°F25.8°C 79.5°F26.4°C 78.4°F25.8°C 78.9°F26.1°C
Dew Point 76.8°F24.9°C 77.7°F25.4°C 76.8°F24.9°C 77.4°F25.2°C
Winds Calm Calm 1.8 mph -2.9 kmh - - 0.2 mph 0.3 kmh
Wind Gusts 1.1 mph1.8 kmh 4.5 mph7.2 kmh - -
Humidity 95% 97% 94% 95%
Pressure 29.94 in1013.9 mb 30.00 in1015.9 mb 29.94 in1013.9 mb -
Hour Temp Dew Point Humidity Winds Wind Gusts Pressure Precip Precip Rate Daily Precip Total
04:27 AM 78.4°F25.8°C 76.8°F24.9°C 95% Calm Calm 1.1 mph1.8 kmh 29.94 in1013.9 mb 0.00 in0.0 mm 0.00 in0.0 mm 0.00 in0.0 mm
04:22 AM 78.4°F25.8°C 76.8°F24.9°C 95% 0.2 mph ENE0.3 kmh ENE 2.2 mph3.5 kmh 29.95 in1014.2 mb 0.00 in0.0 mm 0.00 in0.0 mm 0.00 in0.0 mm
04:17 AM 78.4°F25.8°C 76.8°F24.9°C 95% 1.8 mph ENE2.9 kmh ENE 2.2 mph3.5 kmh 29.95 in1014.2 mb 0.00 in0.0 mm 0.00 in0.0 mm 0.00 in0.0 mm
04:12 AM 78.6°F25.9°C 77.0°F25.0°C 95% Calm Calm 2.2 mph3.5 kmh 29.95 in1014.2 mb 0.00 in0.0 mm 0.00 in0.0 mm 0.00 in0.0 mm
04:07 AM 78.6°F25.9°C 77.4°F25.2°C 96% Calm Calm 2.2 mph3.5 kmh 29.95 in1014.2 mb 0.00 in0.0 mm 0.00 in0.0 mm 0.00 in0.0 mm
04:02 AM 78.4°F25.8°C 77.2°F25.1°C 96% 0.2 mph WSW0.3 kmh WSW 3.4 mph5.5 kmh 29.94 in1013.9 mb 0.00 in0.0 mm 0.00 in0.0 mm 0.00 in0.0 mm
03:56 AM 78.6°F25.9°C 77.4°F25.2°C 96% Calm Calm 2.2 mph3.5 kmh 29.94 in1013.9 mb 0.00 in0.0 mm 0.00 in0.0 mm 0.00 in0.0 mm
03:51 AM 78.6°F25.9°C 77.4°F25.2°C 96% 0.7 mph NE1.1 kmh NE 1.1 mph1.8 kmh 29.95 in1014.2 mb 0.00 in0.0 mm 0.00 in0.0 mm 0.00 in0.0 mm
03:46 AM 78.6°F25.9°C 77.4°F25.2°C 96% 0.4 mph ENE0.6 kmh ENE 1.1 mph1.8 kmh 29.96 in1014.6 mb 0.00 in0.0 mm 0.00 in0.0 mm 0.00 in0.0 mm
03:41 AM 78.6°F25.9°C 77.4°F25.2°C 96% 0.2 mph NE0.3 kmh NE 1.1 mph1.8 kmh 29.95 in1014.2 mb 0.00 in0.0 mm 0.00 in0.0 mm 0.00 in0.0 mm
03:36 AM 78.6°F25.9°C 77.4°F25.2°C 96% Calm Calm 2.2 mph3.5 kmh 29.95 in1014.2 mb 0.00 in0.0 mm 0.00 in0.0 mm 0.00 in0.0 mm
03:31 AM 78.6°F25.9°C 77.4°F25.2°C 96% 1.1 mph NNW1.8 kmh NNW 1.1 mph1.8 kmh 29.96 in1014.6 mb 0.00 in0.0 mm 0.00 in0.0 mm 0.00 in0.0 mm
03:26 AM 78.6°F25.9°C 77.4°F25.2°C 96% Calm Calm 1.1 mph1.8 kmh 29.95 in1014.2 mb 0.00 in0.0 mm 0.00 in0.0 mm 0.00 in0.0 mm
03:21 AM 78.6°F25.9°C 77.4°F25.2°C 96% Calm Calm 4.5 mph7.2 kmh 29.95 in1014.2 mb 0.00 in0.0 mm 0.00 in0.0 mm 0.00 in0.0 mm
03:16 AM 78.6°F25.9°C 77.4°F25.2°C 96% Calm Calm 1.1 mph1.8 kmh 29.95 in1014.2 mb 0.00 in0.0 mm 0.00 in0.0 mm 0.00 in0.0 mm
03:11 AM 78.6°F25.9°C 77.4°F25.2°C 96% Calm Calm -- 29.96 in1014.6 mb 0.00 in0.0 mm 0.00 in0.0 mm 0.00 in0.0 mm
03:06 AM 78.8°F26.0°C 77.2°F25.1°C 95% Calm Calm 1.1 mph1.8 kmh 29.96 in1014.6 mb 0.00 in0.0 mm 0.00 in0.0 mm 0.00 in0.0 mm
03:01 AM 78.8°F26.0°C 77.2°F25.1°C 95% Calm Calm 1.1 mph1.8 kmh 29.96 in1014.6 mb 0.00 in0.0 mm 0.00 in0.0 mm 0.00 in0.0 mm
02:56 AM 78.8°F26.0°C 77.2°F25.1°C 95% 0.2 mph ENE0.3 kmh ENE 2.2 mph3.5 kmh 29.96 in1014.6 mb 0.00 in0.0 mm 0.00 in0.0 mm 0.00 in0.0 mm
02:51 AM 78.8°F26.0°C 77.2°F25.1°C 95% Calm Calm 1.1 mph1.8 kmh 29.96 in1014.6 mb 0.00 in0.0 mm 0.00 in0.0 mm 0.00 in0.0 mm
02:46 AM 78.8°F26.0°C 77.2°F25.1°C 95% 0.9 mph ENE1.4 kmh ENE 2.2 mph3.5 kmh 29.96 in1014.6 mb 0.00 in0.0 mm 0.00 in0.0 mm 0.00 in0.0 mm
02:41 AM 78.8°F26.0°C 77.5°F25.3°C 96% Calm Calm 2.2 mph3.5 kmh 29.96 in1014.6 mb 0.00 in0.0 mm 0.00 in0.0 mm 0.00 in0.0 mm
02:36 AM 78.8°F26.0°C 77.5°F25.3°C 96% Calm Calm 1.1 mph1.8 kmh 29.96 in1014.6 mb 0.00 in0.0 mm 0.00 in0.0 mm 0.00 in0.0 mm
02:31 AM 78.6°F25.9°C 77.4°F25.2°C 96% Calm Calm 3.4 mph5.5 kmh 29.96 in1014.6 mb 0.00 in0.0 mm 0.00 in0.0 mm 0.00 in0.0 mm
02:26 AM 78.6°F25.9°C 77.7°F25.4°C 97% 0.9 mph NW1.4 kmh NW 2.2 mph3.5 kmh 29.97 in1014.9 mb 0.00 in0.0 mm 0.00 in0.0 mm 0.00 in0.0 mm
02:21 AM 78.6°F25.9°C 77.4°F25.2°C 96% Calm Calm -- 29.97 in1014.9 mb 0.00 in0.0 mm 0.00 in0.0 mm 0.00 in0.0 mm
02:16 AM 78.6°F25.9°C 77.4°F25.2°C 96% Calm Calm -- 29.97 in1014.9 mb 0.00 in0.0 mm 0.00 in0.0 mm 0.00 in0.0 mm
02:11 AM 78.8°F26.0°C 77.5°F25.3°C 96% Calm Calm -- 29.97 in1014.9 mb 0.00 in0.0 mm 0.00 in0.0 mm 0.00 in0.0 mm
02:06 AM 79.0°F26.1°C 77.7°F25.4°C 96% Calm Calm 1.1 mph1.8 kmh 29.97 in1014.9 mb 0.00 in0.0 mm 0.00 in0.0 mm 0.00 in0.0 mm
02:01 AM 79.0°F26.1°C 77.7°F25.4°C 96% Calm Calm -- 29.97 in1014.9 mb 0.00 in0.0 mm 0.00 in0.0 mm 0.00 in0.0 mm
01:56 AM 79.0°F26.1°C 77.7°F25.4°C 96% Calm Calm 1.1 mph1.8 kmh 29.97 in1014.9 mb 0.00 in0.0 mm 0.00 in0.0 mm 0.00 in0.0 mm
01:51 AM 79.0°F26.1°C 77.7°F25.4°C 96% Calm Calm 2.2 mph3.5 kmh 29.97 in1014.9 mb 0.00 in0.0 mm 0.00 in0.0 mm 0.00 in0.0 mm
01:46 AM 78.8°F26.0°C 77.5°F25.3°C 96% Calm Calm 1.1 mph1.8 kmh 29.98 in1015.2 mb 0.00 in0.0 mm 0.00 in0.0 mm 0.00 in0.0 mm
01:40 AM 78.8°F26.0°C 77.5°F25.3°C 96% Calm Calm -- 29.98 in1015.2 mb 0.00 in0.0 mm 0.00 in0.0 mm 0.00 in0.0 mm
01:35 AM 79.0°F26.1°C 77.4°F25.2°C 95% Calm Calm 1.1 mph1.8 kmh 29.98 in1015.2 mb 0.00 in0.0 mm 0.00 in0.0 mm 0.00 in0.0 mm
01:30 AM 79.0°F26.1°C 77.4°F25.2°C 95% Calm Calm 1.1 mph1.8 kmh 29.98 in1015.2 mb 0.00 in0.0 mm 0.00 in0.0 mm 0.00 in0.0 mm
01:25 AM 79.2°F26.2°C 77.5°F25.3°C 95% Calm Calm 1.1 mph1.8 kmh 29.98 in1015.2 mb 0.00 in0.0 mm 0.00 in0.0 mm 0.00 in0.0 mm
01:20 AM 79.2°F26.2°C 77.5°F25.3°C 95% Calm Calm 2.2 mph3.5 kmh 29.97 in1014.9 mb 0.00 in0.0 mm 0.00 in0.0 mm 0.00 in0.0 mm
01:15 AM 79.2°F26.2°C 77.5°F25.3°C 95% Calm Calm 2.2 mph3.5 kmh 29.98 in1015.2 mb 0.00 in0.0 mm 0.00 in0.0 mm 0.00 in0.0 mm
01:10 AM 79.2°F26.2°C 77.5°F25.3°C 95% Calm Calm 1.1 mph1.8 kmh 29.98 in1015.2 mb 0.00 in0.0 mm 0.00 in0.0 mm 0.00 in0.0 mm
01:05 AM 79.0°F26.1°C 77.4°F25.2°C 95% 0.9 mph ENE1.4 kmh ENE 1.1 mph1.8 kmh 29.98 in1015.2 mb 0.00 in0.0 mm 0.00 in0.0 mm 0.00 in0.0 mm
01:00 AM 79.0°F26.1°C 77.4°F25.2°C 95% 0.2 mph E0.3 kmh E 1.1 mph1.8 kmh 29.98 in1015.2 mb 0.00 in0.0 mm 0.00 in0.0 mm 0.00 in0.0 mm
12:55 AM 79.0°F26.1°C 77.4°F25.2°C 95% Calm Calm 1.1 mph1.8 kmh 29.99 in1015.6 mb 0.00 in0.0 mm 0.00 in0.0 mm 0.00 in0.0 mm
12:50 AM 79.0°F26.1°C 77.4°F25.2°C 95% Calm Calm 1.1 mph1.8 kmh 29.99 in1015.6 mb 0.00 in0.0 mm 0.00 in0.0 mm 0.00 in0.0 mm
12:45 AM 79.2°F26.2°C 77.5°F25.3°C 95% Calm Calm 1.1 mph1.8 kmh 29.99 in1015.6 mb 0.00 in0.0 mm 0.00 in0.0 mm 0.00 in0.0 mm
12:40 AM 79.2°F26.2°C 77.5°F25.3°C 95% 0.7 mph NE1.1 kmh NE 1.1 mph1.8 kmh 29.99 in1015.6 mb 0.00 in0.0 mm 0.00 in0.0 mm 0.00 in0.0 mm
12:35 AM 79.2°F26.2°C 77.5°F25.3°C 95% Calm Calm 1.1 mph1.8 kmh 29.99 in1015.6 mb 0.00 in0.0 mm 0.00 in0.0 mm 0.00 in0.0 mm
12:30 AM 79.2°F26.2°C 77.5°F25.3°C 95% 0.2 mph NE0.3 kmh NE 2.2 mph3.5 kmh 30.00 in1015.9 mb 0.00 in0.0 mm 0.00 in0.0 mm 0.00 in0.0 mm
12:25 AM 79.2°F26.2°C 77.5°F25.3°C 95% Calm Calm 2.2 mph3.5 kmh 30.00 in1015.9 mb 0.00 in0.0 mm 0.00 in0.0 mm 0.00 in0.0 mm
12:20 AM 79.3°F26.3°C 77.7°F25.4°C 95% Calm Calm 1.1 mph1.8 kmh 29.99 in1015.6 mb 0.00 in0.0 mm 0.00 in0.0 mm 0.00 in0.0 mm
12:14 AM 79.3°F26.3°C 77.5°F25.3°C 94% Calm Calm 1.1 mph1.8 kmh 29.99 in1015.6 mb 0.00 in0.0 mm 0.00 in0.0 mm 0.00 in0.0 mm
12:09 AM 79.5°F26.4°C 77.7°F25.4°C 94% 0.2 mph ENE0.3 kmh ENE 2.2 mph3.5 kmh 29.99 in1015.6 mb 0.00 in0.0 mm 0.00 in0.0 mm 0.00 in0.0 mm
12:04 AM 79.3°F26.3°C 77.5°F25.3°C 94% 0.2 mph N0.3 kmh N 2.2 mph3.5 kmh 29.99 in1015.6 mb 0.00 in0.0 mm 0.00 in0.0 mm 0.00 in0.0 mm